Time;durP1;ratioP1;P1;durP2;ratioP2;P2;SDS_P1;SDS_P2;PMS_P1;PMS_P2;Temp;Humidity;BMP_temperature;BMP_pressure;BME280_temperature;BME280_humidity;BME280_pressure;Samples;Min_cycle;Max_cycle;Signal;HPM_P1;HPM_P2
2022/09/10 00:00:25;;;;;;;;;;;;;;;;;;4991482;28;1313;-73
2022/09/10 00:02:51;;;;;;;;;;;;;;;;;;5008417;28;1079;-74
2022/09/10 00:05:20;;;;;;;;;;;;;;;;;;5009076;28;1332;-74
2022/09/10 00:07:46;;;;;;;;;;;;;;;;;;4991152;28;1147;-74
2022/09/10 00:10:12;;;;;;;;;;;;;;;;;;5009029;28;1008;-73
2022/09/10 00:12:41;;;;;;;;;;;;;;;;;;5008440;28;1919;-73
2022/09/10 00:15:08;;;;;;;;;;;;;;;;;;5008614;28;1286;-73
2022/09/10 00:17:35;;;;;;;;;;;;;;;;;;4991144;28;1276;-73
2022/09/10 00:20:02;;;;;;;;;;;;;;;;;;5008359;28;1095;-73
2022/09/10 00:22:30;;;;;;;;;;;;;;;;;;5007706;28;666;-75
2022/09/10 00:24:56;;;;;;;;;;;;;;;;;;4990898;28;1330;-74
2022/09/10 00:27:22;;;;;;;;;;;;;;;;;;4991118;28;1276;-74
2022/09/10 00:29:50;;;;;;;;;;;;;;;;;;4990978;28;1115;-75
2022/09/10 00:32:17;;;;;;;;;;;;;;;;;;4990352;28;1254;-74
2022/09/10 00:34:43;;;;;;;;;;;;;;;;;;5008130;28;1918;-74
2022/09/10 00:37:09;;;;;;;;;;;;;;;;;;5007015;28;1328;-74
2022/09/10 00:39:37;;;;;;;;;;;;;;;;;;4990634;28;1399;-72
2022/09/10 00:42:03;;;;;;;;;;;;;;;;;;4990384;28;1281;-72
2022/09/10 00:44:48;;;;;;;;;;;;;;;;;;4990554;28;1388;-74
2022/09/10 00:47:15;;;;;;;;;;;;;;;;;;4990558;28;806;-74
2022/09/10 00:49:44;;;;;;;;;;;;;;;;;;4990557;28;1184;-73
2022/09/10 00:52:11;;;;;;;;;;;;;;;;;;4990359;28;1390;-74
2022/09/10 00:54:38;;;;;;;;;;;;;;;;;;5007887;28;1919;-74
2022/09/10 00:57:05;;;;;;;;;;;;;;;;;;4990387;28;1296;-74
2022/09/10 00:59:31;;;;;;;;;;;;;;;;;;5008007;28;858;-74
2022/09/10 01:01:58;;;;;;;;;;;;;;;;;;4989539;28;1262;-74
2022/09/10 01:04:25;;;;;;;;;;;;;;;;;;4982985;28;1490;-73
2022/09/10 01:06:51;;;;;;;;;;;;;;;;;;4988258;28;806;-74
2022/09/10 01:09:18;;;;;;;;;;;;;;;;;;4971043;28;1389;-74
2022/09/10 01:11:56;;;;;;;;;;;;;;;;;;4987935;28;842;-74
2022/09/10 01:14:37;;;;;;;;;;;;;;;;;;4970673;28;1910;-73
2022/09/10 01:17:05;;;;;;;;;;;;;;;;;;4988354;28;1055;-74
2022/09/10 01:19:51;;;;;;;;;;;;;;;;;;4970986;28;1211;-73
2022/09/10 01:22:19;;;;;;;;;;;;;;;;;;4970640;28;1314;-74
2022/09/10 01:24:50;;;;;;;;;;;;;;;;;;4970547;28;1395;-74
2022/09/10 01:27:31;;;;;;;;;;;;;;;;;;4970732;28;1239;-74
2022/09/10 01:30:02;;;;;;;;;;;;;;;;;;4970933;28;1437;-74
2022/09/10 01:32:31;;;;;;;;;;;;;;;;;;4971500;28;1316;-73
2022/09/10 01:34:59;;;;;;;;;;;;;;;;;;4974058;28;1923;-73
2022/09/10 01:37:27;;;;;;;;;;;;;;;;;;4974365;28;1144;-72
2022/09/10 01:39:53;;;;;;;;;;;;;;;;;;4973549;28;2029;-74
2022/09/10 01:42:20;;;;;;;;;;;;;;;;;;4973777;28;1514;-74
2022/09/10 01:44:48;;;;;;;;;;;;;;;;;;4989989;28;1312;-73
2022/09/10 01:47:25;;;;;;;;;;;;;;;;;;4990247;28;1075;-73
2022/09/10 01:50:07;;;;;;;;;;;;;;;;;;4989994;28;1464;-73
2022/09/10 01:52:36;;;;;;;;;;;;;;;;;;4989651;28;1340;-74
2022/09/10 01:55:06;;;;;;;;;;;;;;;;;;4973688;28;1982;-74
2022/09/10 01:57:38;;;;;;;;;;;;;;;;;;4989814;28;1310;-73
2022/09/10 02:00:08;;;;;;;;;;;;;;;;;;4973882;28;1238;-73
2022/09/10 02:02:41;;;;;;;;;;;;;;;;;;4990739;28;655;-72
2022/09/10 02:05:08;;;;;;;;;;;;;;;;;;4990222;28;1332;-74
2022/09/10 02:07:36;;;;;;;;;;;;;;;;;;4973856;28;1379;-73
2022/09/10 02:10:03;;;;;;;;;;;;;;;;;;4974079;28;1323;-73
2022/09/10 02:12:34;;;;;;;;;;;;;;;;;;4973985;28;1077;-73
2022/09/10 02:15:21;;;;;;;;;;;;;;;;;;4989770;28;1486;-73
2022/09/10 02:17:58;;;;;;;;;;;;;;;;;;4989263;28;2762;-74
2022/09/10 02:20:25;;;;;;;;;;;;;;;;;;4973693;28;1449;-74
2022/09/10 02:22:52;;;;;;;;;;;;;;;;;;4989267;28;1136;-73
2022/09/10 02:25:18;;;;;;;;;;;;;;;;;;4973334;28;1346;-74
2022/09/10 02:27:45;;;;;;;;;;;;;;;;;;4973377;28;1195;-74
2022/09/10 02:30:11;;;;;;;;;;;;;;;;;;4973673;28;1148;-73
2022/09/10 02:32:38;;;;;;;;;;;;;;;;;;4973085;28;1627;-71
2022/09/10 02:35:07;;;;;;;;;;;;;;;;;;4973430;28;1918;-73
2022/09/10 02:37:34;;;;;;;;;;;;;;;;;;4973258;28;1379;-73
2022/09/10 02:40:00;;;;;;;;;;;;;;;;;;4973035;28;1179;-73
2022/09/10 02:42:26;;;;;;;;;;;;;;;;;;4973213;28;1325;-74
2022/09/10 02:44:53;;;;;;;;;;;;;;;;;;4972335;28;1317;-73
2022/09/10 02:47:19;;;;;;;;;;;;;;;;;;4973406;28;1441;-73
2022/09/10 02:49:46;;;;;;;;;;;;;;;;;;4973296;28;1194;-74
2022/09/10 02:52:13;;;;;;;;;;;;;;;;;;4972709;28;1217;-74
2022/09/10 02:54:40;;;;;;;;;;;;;;;;;;4972679;28;1919;-73
2022/09/10 02:57:06;;;;;;;;;;;;;;;;;;4972899;28;1555;-72
2022/09/10 02:59:32;;;;;;;;;;;;;;;;;;4973560;28;1223;-73
2022/09/10 03:01:59;;;;;;;;;;;;;;;;;;4972684;28;1188;-73
2022/09/10 03:04:25;;;;;;;;;;;;;;;;;;4972819;28;1401;-71
2022/09/10 03:06:52;;;;;;;;;;;;;;;;;;4972831;28;1239;-72
2022/09/10 03:09:21;;;;;;;;;;;;;;;;;;4990159;28;836;-71
2022/09/10 03:11:47;;;;;;;;;;;;;;;;;;4972703;28;1536;-73
2022/09/10 03:14:19;;;;;;;;;;;;;;;;;;4972884;28;1984;-72
2022/09/10 03:16:45;;;;;;;;;;;;;;;;;;4972462;28;1273;-72
2022/09/10 03:19:12;;;;;;;;;;;;;;;;;;4972682;28;1222;-73
2022/09/10 03:21:40;;;;;;;;;;;;;;;;;;4989718;28;762;-71
2022/09/10 03:24:09;;;;;;;;;;;;;;;;;;4972647;28;1237;-74
2022/09/10 03:26:36;;;;;;;;;;;;;;;;;;4972639;28;1317;-72
2022/09/10 03:29:04;;;;;;;;;;;;;;;;;;4973730;28;1336;-72
2022/09/10 03:31:35;;;;;;;;;;;;;;;;;;4972279;28;1585;-72
2022/09/10 03:34:02;;;;;;;;;;;;;;;;;;4972324;28;1915;-73
2022/09/10 03:36:30;;;;;;;;;;;;;;;;;;4972413;28;1502;-73
2022/09/10 03:38:56;;;;;;;;;;;;;;;;;;4972370;28;1332;-72
2022/09/10 03:41:23;;;;;;;;;;;;;;;;;;4971967;28;1187;-71
2022/09/10 03:43:53;;;;;;;;;;;;;;;;;;4972187;28;1321;-72
2022/09/10 03:46:20;;;;;;;;;;;;;;;;;;4972259;28;1347;-72
2022/09/10 03:48:47;;;;;;;;;;;;;;;;;;4972318;28;1439;-72
2022/09/10 03:51:14;;;;;;;;;;;;;;;;;;4972084;28;1208;-72
2022/09/10 03:53:41;;;;;;;;;;;;;;;;;;4971877;28;1976;-72
2022/09/10 03:56:08;;;;;;;;;;;;;;;;;;4972059;28;1435;-71
2022/09/10 03:58:35;;;;;;;;;;;;;;;;;;4972029;28;1192;-72
2022/09/10 04:01:03;;;;;;;;;;;;;;;;;;4972078;28;1172;-72
2022/09/10 04:03:31;;;;;;;;;;;;;;;;;;4989148;28;803;-72
2022/09/10 04:05:58;;;;;;;;;;;;;;;;;;4989259;28;1290;-72
2022/09/10 04:08:24;;;;;;;;;;;;;;;;;;4972214;28;1210;-73
2022/09/10 04:10:51;;;;;;;;;;;;;;;;;;4971788;28;1375;-73
2022/09/10 04:13:18;;;;;;;;;;;;;;;;;;4971814;28;1154;-72
2022/09/10 04:15:45;;;;;;;;;;;;;;;;;;4971493;28;1942;-72
2022/09/10 04:18:13;;;;;;;;;;;;;;;;;;4971958;28;978;-72
2022/09/10 04:20:41;;;;;;;;;;;;;;;;;;4971677;28;1531;-72
2022/09/10 04:23:09;;;;;;;;;;;;;;;;;;4971496;28;1194;-72
2022/09/10 04:25:37;;;;;;;;;;;;;;;;;;4971557;28;1522;-72
2022/09/10 04:28:04;;;;;;;;;;;;;;;;;;4989004;28;961;-70
2022/09/10 04:30:31;;;;;;;;;;;;;;;;;;4989028;28;782;-72
2022/09/10 04:32:57;;;;;;;;;;;;;;;;;;4970948;28;1134;-72
2022/09/10 04:35:25;;;;;;;;;;;;;;;;;;4988778;28;1977;-72
2022/09/10 04:37:52;;;;;;;;;;;;;;;;;;4971420;28;1211;-72
2022/09/10 04:40:19;;;;;;;;;;;;;;;;;;4971524;28;1451;-71
2022/09/10 04:42:47;;;;;;;;;;;;;;;;;;4970933;28;1268;-73
2022/09/10 04:45:13;;;;;;;;;;;;;;;;;;4971304;28;1320;-72
2022/09/10 04:47:40;;;;;;;;;;;;;;;;;;4990685;28;1492;-72
2022/09/10 04:50:07;;;;;;;;;;;;;;;;;;4995177;28;1385;-71
2022/09/10 04:52:35;;;;;;;;;;;;;;;;;;4973626;28;1391;-72
2022/09/10 04:55:01;;;;;;;;;;;;;;;;;;4994749;28;1906;-72
2022/09/10 04:57:28;;;;;;;;;;;;;;;;;;4971292;28;1180;-73
2022/09/10 04:59:54;;;;;;;;;;;;;;;;;;4987189;28;1487;-72
2022/09/10 05:02:21;;;;;;;;;;;;;;;;;;4970793;28;1290;-72
2022/09/10 05:04:49;;;;;;;;;;;;;;;;;;4970393;28;1571;-72
2022/09/10 05:07:15;;;;;;;;;;;;;;;;;;4970817;28;1487;-73
2022/09/10 05:09:43;;;;;;;;;;;;;;;;;;4978541;28;1621;-73
2022/09/10 05:12:14;;;;;;;;;;;;;;;;;;4965305;28;1542;-72
2022/09/10 05:14:41;;;;;;;;;;;;;;;;;;4982348;28;1918;-71
2022/09/10 05:17:07;;;;;;;;;;;;;;;;;;4988517;28;2484;-73
2022/09/10 05:19:34;;;;;;;;;;;;;;;;;;4982831;28;1594;-74
2022/09/10 05:22:04;;;;;;;;;;;;;;;;;;4979348;28;1407;-73
2022/09/10 05:24:33;;;;;;;;;;;;;;;;;;5014875;28;1778;-72
2022/09/10 05:27:02;;;;;;;;;;;;;;;;;;4979690;28;1013;-74
2022/09/10 05:29:28;;;;;;;;;;;;;;;;;;4974163;28;1292;-73
2022/09/10 05:31:54;;;;;;;;;;;;;;;;;;5075688;28;1174;-73
2022/09/10 05:34:23;;;;;;;;;;;;;;;;;;5076020;28;1914;-72
2022/09/10 05:36:50;;;;;;;;;;;;;;;;;;4979099;28;1474;-73
2022/09/10 05:39:16;;;;;;;;;;;;;;;;;;4965348;28;1433;-73
2022/09/10 05:41:44;;;;;;;;;;;;;;;;;;4966159;28;1605;-74
2022/09/10 05:44:12;;;;;;;;;;;;;;;;;;4990237;28;1230;-73
2022/09/10 05:46:39;;;;;;;;;;;;;;;;;;4991447;28;1310;-73
2022/09/10 05:49:11;;;;;;;;;;;;;;;;;;4990189;28;1320;-73
2022/09/10 05:51:39;;;;;;;;;;;;;;;;;;4978032;28;1573;-73
2022/09/10 05:54:07;;;;;;;;;;;;;;;;;;4960851;28;1915;-73
2022/09/10 05:56:33;;;;;;;;;;;;;;;;;;4987850;28;1414;-75
2022/09/10 05:59:02;;;;;;;;;;;;;;;;;;4987800;28;1451;-74
2022/09/10 06:01:31;;;;;;;;;;;;;;;;;;4982989;28;1459;-73
2022/09/10 06:03:58;;;;;;;;;;;;;;;;;;4957136;28;1464;-73
2022/09/10 06:06:27;;;;;;;;;;;;;;;;;;4982678;28;1500;-73
2022/09/10 06:08:57;;;;;;;;;;;;;;;;;;4987662;28;1474;-73
2022/09/10 06:11:39;;;;;;;;;;;;;;;;;;4965043;28;2575;-74
2022/09/10 06:14:05;;;;;;;;;;;;;;;;;;4968643;28;1828;-72
2022/09/10 06:16:33;;;;;;;;;;;;;;;;;;4986102;28;2032;-75
2022/09/10 06:19:01;;;;;;;;;;;;;;;;;;4968281;28;1883;-73
2022/09/10 06:21:28;;;;;;;;;;;;;;;;;;4971835;28;1601;-73
2022/09/10 06:23:56;;;;;;;;;;;;;;;;;;4971280;28;1639;-72
2022/09/10 06:26:25;;;;;;;;;;;;;;;;;;5001542;28;1425;-73
2022/09/10 06:28:55;;;;;;;;;;;;;;;;;;4984496;28;1314;-73
2022/09/10 06:31:22;;;;;;;;;;;;;;;;;;4951919;28;991;-71
2022/09/10 06:33:51;;;;;;;;;;;;;;;;;;4951949;28;1217;-73
2022/09/10 06:36:20;;;;;;;;;;;;;;;;;;4951822;28;1969;-72
2022/09/10 06:38:49;;;;;;;;;;;;;;;;;;4951878;28;1570;-72
2022/09/10 06:41:16;;;;;;;;;;;;;;;;;;4952888;28;1358;-72
2022/09/10 06:43:50;;;;;;;;;;;;;;;;;;4953568;28;1349;-73
2022/09/10 06:46:30;;;;;;;;;;;;;;;;;;4953609;28;1395;-73
2022/09/10 06:49:04;;;;;;;;;;;;;;;;;;4953661;28;1263;-73
2022/09/10 06:51:33;;;;;;;;;;;;;;;;;;4953233;28;1473;-73
2022/09/10 06:54:01;;;;;;;;;;;;;;;;;;4953563;28;1359;-73
2022/09/10 06:56:28;;;;;;;;;;;;;;;;;;4953238;28;1997;-73
2022/09/10 06:58:56;;;;;;;;;;;;;;;;;;4953655;28;1670;-73
2022/09/10 07:01:24;;;;;;;;;;;;;;;;;;4953225;28;1307;-73
2022/09/10 07:03:55;;;;;;;;;;;;;;;;;;4953389;28;1402;-73
2022/09/10 07:06:22;;;;;;;;;;;;;;;;;;4953382;28;1483;-72
2022/09/10 07:08:55;;;;;;;;;;;;;;;;;;4967308;28;1550;-73
2022/09/10 07:11:22;;;;;;;;;;;;;;;;;;4972291;28;1403;-72
2022/09/10 07:13:50;;;;;;;;;;;;;;;;;;4972597;28;1364;-73
2022/09/10 07:16:17;;;;;;;;;;;;;;;;;;4972183;28;1978;-72
2022/09/10 07:18:43;;;;;;;;;;;;;;;;;;4972232;28;1412;-73
2022/09/10 07:21:10;;;;;;;;;;;;;;;;;;4972461;28;1378;-73
2022/09/10 07:23:43;;;;;;;;;;;;;;;;;;4989683;28;850;-72
2022/09/10 07:26:11;;;;;;;;;;;;;;;;;;4972248;28;1379;-73
2022/09/10 07:28:42;;;;;;;;;;;;;;;;;;4972263;28;1584;-71
2022/09/10 07:31:13;;;;;;;;;;;;;;;;;;4972529;28;1275;-73
2022/09/10 07:33:39;;;;;;;;;;;;;;;;;;4971882;28;1298;-73
2022/09/10 07:36:06;;;;;;;;;;;;;;;;;;4972224;28;1976;-71
2022/09/10 07:38:33;;;;;;;;;;;;;;;;;;4971316;28;1543;-72
2022/09/10 07:41:00;;;;;;;;;;;;;;;;;;4971155;28;1642;-72
2022/09/10 07:43:27;;;;;;;;;;;;;;;;;;4968162;28;1210;-73
2022/09/10 07:45:55;;;;;;;;;;;;;;;;;;5072968;28;1297;-73
2022/09/10 07:48:22;;;;;;;;;;;;;;;;;;5063274;28;1486;-73
2022/09/10 07:50:49;;;;;;;;;;;;;;;;;;4971719;28;1389;-73
2022/09/10 07:53:18;;;;;;;;;;;;;;;;;;4987954;28;1238;-74
2022/09/10 07:55:45;;;;;;;;;;;;;;;;;;4970310;28;1915;-73
2022/09/10 07:58:14;;;;;;;;;;;;;;;;;;4961734;28;1587;-73
2022/09/10 08:00:43;;;;;;;;;;;;;;;;;;4987034;28;1555;-72
2022/09/10 08:03:10;;;;;;;;;;;;;;;;;;4963268;28;1227;-73
2022/09/10 08:05:39;;;;;;;;;;;;;;;;;;5071672;28;1547;-70
2022/09/10 08:08:06;;;;;;;;;;;;;;;;;;5073220;28;1230;-73
2022/09/10 08:10:34;;;;;;;;;;;;;;;;;;5072875;28;1367;-74
2022/09/10 08:13:02;;;;;;;;;;;;;;;;;;5072678;28;1005;-73
2022/09/10 08:15:30;;;;;;;;;;;;;;;;;;5072597;28;1984;-73
2022/09/10 08:17:59;;;;;;;;;;;;;;;;;;5072869;28;1580;-73
2022/09/10 08:20:26;;;;;;;;;;;;;;;;;;5072065;28;1535;-72
2022/09/10 08:22:56;;;;;;;;;;;;;;;;;;4990625;28;1483;-73
2022/09/10 08:25:22;;;;;;;;;;;;;;;;;;4990882;28;1334;-73
2022/09/10 08:27:48;;;;;;;;;;;;;;;;;;4990854;28;1321;-73
2022/09/10 08:30:15;;;;;;;;;;;;;;;;;;5008698;28;794;-71
2022/09/10 08:32:43;;;;;;;;;;;;;;;;;;4990226;28;1470;-73
2022/09/10 08:35:13;;;;;;;;;;;;;;;;;;4990895;28;1914;-73
2022/09/10 08:37:40;;;;;;;;;;;;;;;;;;4989817;28;1161;-73
2022/09/10 08:40:10;;;;;;;;;;;;;;;;;;4990949;28;1434;-72
2022/09/10 08:42:38;;;;;;;;;;;;;;;;;;5005979;28;1200;-73
2022/09/10 08:45:04;;;;;;;;;;;;;;;;;;4990662;28;1424;-74
2022/09/10 08:47:32;;;;;;;;;;;;;;;;;;4990829;28;1280;-73
2022/09/10 08:50:05;;;;;;;;;;;;;;;;;;4990657;28;1532;-73
2022/09/10 08:52:33;;;;;;;;;;;;;;;;;;4990762;28;1633;-73
2022/09/10 08:55:02;;;;;;;;;;;;;;;;;;4990725;28;1421;-73
2022/09/10 08:57:31;;;;;;;;;;;;;;;;;;5006848;28;1347;-73
2022/09/10 08:59:57;;;;;;;;;;;;;;;;;;4990325;28;1237;-73
2022/09/10 09:02:28;;;;;;;;;;;;;;;;;;4990149;28;1627;-73
2022/09/10 09:04:57;;;;;;;;;;;;;;;;;;4975743;28;1535;-73
2022/09/10 09:07:24;;;;;;;;;;;;;;;;;;4988379;28;1051;-73
2022/09/10 09:09:56;;;;;;;;;;;;;;;;;;4970744;28;1598;-74
2022/09/10 09:12:25;;;;;;;;;;;;;;;;;;4970555;28;1148;-74
2022/09/10 09:14:53;;;;;;;;;;;;;;;;;;4970683;28;1434;-73
2022/09/10 09:17:30;;;;;;;;;;;;;;;;;;4970768;28;1983;-73
2022/09/10 09:20:00;;;;;;;;;;;;;;;;;;4970678;28;959;-72
2022/09/10 09:22:34;;;;;;;;;;;;;;;;;;4970887;28;1275;-73
2022/09/10 09:25:06;;;;;;;;;;;;;;;;;;4970681;28;1407;-72
2022/09/10 09:27:33;;;;;;;;;;;;;;;;;;4987054;28;1176;-73
2022/09/10 09:30:01;;;;;;;;;;;;;;;;;;4970564;28;1353;-73
2022/09/10 09:32:29;;;;;;;;;;;;;;;;;;4987788;28;786;-73
2022/09/10 09:34:57;;;;;;;;;;;;;;;;;;4970406;28;1520;-73
2022/09/10 09:37:24;;;;;;;;;;;;;;;;;;4984127;23;3603;-76
2022/09/10 09:40:03;;;;;;;;;;;;;;;;;;4969699;28;1452;-74
2022/09/10 09:42:32;;;;;;;;;;;;;;;;;;4966363;28;1347;-75
2022/09/10 09:45:01;;;;;;;;;;;;;;;;;;4967621;28;1116;-75
2022/09/10 09:47:29;;;;;;;;;;;;;;;;;;4951479;28;1281;-75
2022/09/10 09:49:55;;;;;;;;;;;;;;;;;;4953556;28;1704;-76
2022/09/10 09:52:22;;;;;;;;;;;;;;;;;;4970205;28;1286;-75
2022/09/10 09:54:49;;;;;;;;;;;;;;;;;;4990988;28;1071;-75
2022/09/10 09:57:18;;;;;;;;;;;;;;;;;;4991373;28;1985;-75
2022/09/10 09:59:44;;;;;;;;;;;;;;;;;;4991499;28;870;-75
2022/09/10 10:02:11;;;;;;;;;;;;;;;;;;4973381;28;830;-76
2022/09/10 10:04:37;;;;;;;;;;;;;;;;;;4991753;28;1059;-75
2022/09/10 10:07:03;;;;;;;;;;;;;;;;;;4991046;28;1316;-75
2022/09/10 10:09:30;;;;;;;;;;;;;;;;;;4974027;28;1318;-75
2022/09/10 10:11:57;;;;;;;;;;;;;;;;;;4973365;28;1139;-76
2022/09/10 10:14:36;;;;;;;;;;;;;;;;;;4973990;28;1310;-76
2022/09/10 10:17:03;;;;;;;;;;;;;;;;;;4991208;28;1985;-76
2022/09/10 10:19:33;;;;;;;;;;;;;;;;;;4973832;28;1191;-76
2022/09/10 10:22:15;;;;;;;;;;;;;;;;;;4990990;28;1075;-75
2022/09/10 10:24:42;;;;;;;;;;;;;;;;;;4973554;28;1187;-76
2022/09/10 10:27:10;;;;;;;;;;;;;;;;;;4990709;28;1405;-76
2022/09/10 10:29:38;;;;;;;;;;;;;;;;;;4973457;28;1155;-76
2022/09/10 10:32:04;;;;;;;;;;;;;;;;;;4990306;28;1048;-75
2022/09/10 10:34:36;;;;;;;;;;;;;;;;;;4990727;28;1327;-75
2022/09/10 10:37:04;;;;;;;;;;;;;;;;;;4990284;28;1915;-75
2022/09/10 10:39:34;;;;;;;;;;;;;;;;;;4990803;28;885;-76
2022/09/10 10:42:03;;;;;;;;;;;;;;;;;;4990506;28;1110;-76
2022/09/10 10:44:43;;;;;;;;;;;;;;;;;;4973209;28;1384;-75
2022/09/10 10:47:19;;;;;;;;;;;;;;;;;;4990485;28;1344;-75
2022/09/10 10:49:48;;;;;;;;;;;;;;;;;;4988927;28;1119;-75
2022/09/10 10:52:18;;;;;;;;;;;;;;;;;;4990294;28;1064;-76
2022/09/10 10:54:48;;;;;;;;;;;;;;;;;;4973306;28;1257;-75
2022/09/10 10:57:18;;;;;;;;;;;;;;;;;;4990464;28;1974;-75
2022/09/10 10:59:51;;;;;;;;;;;;;;;;;;4990658;28;992;-76
2022/09/10 11:02:20;;;;;;;;;;;;;;;;;;4995908;28;1443;-76
2022/09/10 11:04:47;;;;;;;;;;;;;;;;;;5009343;28;787;-75
2022/09/10 11:07:14;;;;;;;;;;;;;;;;;;5009697;28;1290;-75
2022/09/10 11:09:41;;;;;;;;;;;;;;;;;;4992590;28;1119;-76
2022/09/10 11:12:09;;;;;;;;;;;;;;;;;;4992018;28;1127;-75
2022/09/10 11:14:37;;;;;;;;;;;;;;;;;;5010011;28;1051;-74
2022/09/10 11:17:05;;;;;;;;;;;;;;;;;;4992105;28;1910;-75
2022/09/10 11:19:34;;;;;;;;;;;;;;;;;;5009851;28;1055;-74
2022/09/10 11:22:03;;;;;;;;;;;;;;;;;;4992042;28;1363;-75
2022/09/10 11:24:32;;;;;;;;;;;;;;;;;;5010051;28;1199;-75
2022/09/10 11:27:00;;;;;;;;;;;;;;;;;;5009892;28;1313;-75
2022/09/10 11:29:31;;;;;;;;;;;;;;;;;;4992152;28;1379;-77
2022/09/10 11:31:59;;;;;;;;;;;;;;;;;;4991766;28;1241;-76
2022/09/10 11:34:28;;;;;;;;;;;;;;;;;;5009853;28;1016;-76
2022/09/10 11:36:56;;;;;;;;;;;;;;;;;;5009282;28;1975;-76
2022/09/10 11:39:23;;;;;;;;;;;;;;;;;;4992099;28;1303;-77
2022/09/10 11:41:50;;;;;;;;;;;;;;;;;;5009418;28;889;-76
2022/09/10 11:44:24;;;;;;;;;;;;;;;;;;5009371;28;878;-75
2022/09/10 11:46:55;;;;;;;;;;;;;;;;;;5009134;28;1387;-75
2022/09/10 11:49:22;;;;;;;;;;;;;;;;;;5009262;28;929;-75
2022/09/10 11:51:50;;;;;;;;;;;;;;;;;;5009052;28;1119;-75
2022/09/10 11:54:17;;;;;;;;;;;;;;;;;;5009264;28;1119;-75
2022/09/10 11:56:48;;;;;;;;;;;;;;;;;;5009099;28;1914;-76
2022/09/10 11:59:18;;;;;;;;;;;;;;;;;;5009273;28;993;-74
2022/09/10 12:01:51;;;;;;;;;;;;;;;;;;4991225;28;1179;-74
2022/09/10 12:04:21;;;;;;;;;;;;;;;;;;4991490;28;1181;-75
2022/09/10 12:07:03;;;;;;;;;;;;;;;;;;5009134;28;1329;-75
2022/09/10 12:09:30;;;;;;;;;;;;;;;;;;5009242;28;1095;-75
2022/09/10 12:11:57;;;;;;;;;;;;;;;;;;5008658;28;898;-75
2022/09/10 12:14:23;;;;;;;;;;;;;;;;;;5008717;28;1092;-75
2022/09/10 12:16:50;;;;;;;;;;;;;;;;;;5007845;28;1907;-75
2022/09/10 12:19:19;;;;;;;;;;;;;;;;;;5008939;28;1086;-75
2022/09/10 12:21:47;;;;;;;;;;;;;;;;;;5008687;28;1103;-76
2022/09/10 12:24:23;;;;;;;;;;;;;;;;;;5008879;28;1062;-75
2022/09/10 12:26:49;;;;;;;;;;;;;;;;;;5008970;28;1420;-75
2022/09/10 12:29:26;;;;;;;;;;;;;;;;;;5008888;28;1131;-76
2022/09/10 12:32:07;;;;;;;;;;;;;;;;;;5008211;28;1063;-76
2022/09/10 12:34:33;;;;;;;;;;;;;;;;;;5009316;28;1127;-75
2022/09/10 12:37:09;;;;;;;;;;;;;;;;;;5008524;28;1973;-76
2022/09/10 12:39:37;;;;;;;;;;;;;;;;;;5008739;28;917;-76
2022/09/10 12:42:03;;;;;;;;;;;;;;;;;;5008471;28;1131;-76
2022/09/10 12:44:33;;;;;;;;;;;;;;;;;;4988548;28;1335;-76
2022/09/10 12:47:19;;;;;;;;;;;;;;;;;;5007359;28;1346;-76
2022/09/10 12:49:45;;;;;;;;;;;;;;;;;;5008302;28;1063;-76
2022/09/10 12:52:12;;;;;;;;;;;;;;;;;;4990578;28;1290;-76
2022/09/10 12:54:43;;;;;;;;;;;;;;;;;;4991078;28;902;-77
2022/09/10 12:57:17;;;;;;;;;;;;;;;;;;5007944;28;1918;-77
2022/09/10 13:00:02;;;;;;;;;;;;;;;;;;4991146;28;890;-76
2022/09/10 13:02:29;;;;;;;;;;;;;;;;;;5004524;28;1577;-76
2022/09/10 13:04:57;;;;;;;;;;;;;;;;;;5008405;28;928;-76
2022/09/10 13:07:24;;;;;;;;;;;;;;;;;;5008197;28;1320;-76
2022/09/10 13:09:56;;;;;;;;;;;;;;;;;;4990687;28;1107;-77
2022/09/10 13:12:23;;;;;;;;;;;;;;;;;;5007805;28;1568;-76
2022/09/10 13:14:49;;;;;;;;;;;;;;;;;;5008249;28;924;-77
2022/09/10 13:17:33;;;;;;;;;;;;;;;;;;5007934;28;1914;-76
2022/09/10 13:20:11;;;;;;;;;;;;;;;;;;5007848;28;1566;-77
2022/09/10 13:23:00;;;;;;;;;;;;;;;;;;5007822;28;1055;-76
2022/09/10 13:25:39;;;;;;;;;;;;;;;;;;4990426;28;1288;-77
2022/09/10 13:28:23;;;;;;;;;;;;;;;;;;5008486;28;1356;-77
2022/09/10 13:30:57;;;;;;;;;;;;;;;;;;5011481;28;996;-77
2022/09/10 13:33:23;;;;;;;;;;;;;;;;;;5010998;28;1106;-76
2022/09/10 13:36:05;;;;;;;;;;;;;;;;;;5011406;28;711;-76
2022/09/10 13:38:45;;;;;;;;;;;;;;;;;;5011157;28;1981;-76
2022/09/10 13:41:27;;;;;;;;;;;;;;;;;;5011007;28;1115;-76
2022/09/10 13:43:59;;;;;;;;;;;;;;;;;;5005365;28;1258;-76
2022/09/10 13:46:27;;;;;;;;;;;;;;;;;;5011300;28;929;-76
2022/09/10 13:48:56;;;;;;;;;;;;;;;;;;5011116;28;1382;-76
2022/09/10 13:51:24;;;;;;;;;;;;;;;;;;4993009;28;1247;-76
2022/09/10 13:53:51;;;;;;;;;;;;;;;;;;4993986;28;1269;-77
2022/09/10 13:56:20;;;;;;;;;;;;;;;;;;5032515;28;1609;-78
2022/09/10 13:58:47;;;;;;;;;;;;;;;;;;5038299;28;1977;-77
2022/09/10 14:01:17;;;;;;;;;;;;;;;;;;4999972;28;1458;-76
2022/09/10 14:03:44;;;;;;;;;;;;;;;;;;5068369;28;1252;-78
2022/09/10 14:06:10;;;;;;;;;;;;;;;;;;5094014;28;940;-77
2022/09/10 14:08:38;;;;;;;;;;;;;;;;;;5094304;28;1388;-77
2022/09/10 14:11:06;;;;;;;;;;;;;;;;;;5042015;28;1524;-77
2022/09/10 14:13:33;;;;;;;;;;;;;;;;;;5060060;28;1170;-78
2022/09/10 14:15:59;;;;;;;;;;;;;;;;;;5093760;28;1063;-76
2022/09/10 14:18:30;;;;;;;;;;;;;;;;;;5075798;28;1918;-77
2022/09/10 14:20:57;;;;;;;;;;;;;;;;;;5094268;28;1223;-76
2022/09/10 14:23:23;;;;;;;;;;;;;;;;;;5042951;28;1451;-77
2022/09/10 14:25:49;;;;;;;;;;;;;;;;;;5071880;28;1233;-78
2022/09/10 14:28:19;;;;;;;;;;;;;;;;;;5073078;28;1487;-76
2022/09/10 14:30:46;;;;;;;;;;;;;;;;;;5065948;28;1613;-78
2022/09/10 14:33:20;;;;;;;;;;;;;;;;;;4992414;28;1279;-78
2022/09/10 14:35:48;;;;;;;;;;;;;;;;;;4974816;28;1393;-77
2022/09/10 14:38:21;;;;;;;;;;;;;;;;;;4990179;28;1934;-77
2022/09/10 14:40:48;;;;;;;;;;;;;;;;;;4989196;28;1318;-76
2022/09/10 14:43:15;;;;;;;;;;;;;;;;;;4997405;28;1365;-78
2022/09/10 14:45:41;;;;;;;;;;;;;;;;;;5040590;28;1403;-77
2022/09/10 14:48:26;;;;;;;;;;;;;;;;;;5041882;28;1567;-77
2022/09/10 14:51:04;;;;;;;;;;;;;;;;;;5093329;28;1110;-77
2022/09/10 14:53:30;;;;;;;;;;;;;;;;;;5090498;28;1518;-77
2022/09/10 14:55:56;;;;;;;;;;;;;;;;;;4975763;28;1475;-77
2022/09/10 14:58:22;;;;;;;;;;;;;;;;;;4990356;28;1977;-77
2022/09/10 15:00:50;;;;;;;;;;;;;;;;;;4991412;28;882;-76
2022/09/10 15:03:16;;;;;;;;;;;;;;;;;;4991893;28;984;-78
2022/09/10 15:05:43;;;;;;;;;;;;;;;;;;4992312;28;1122;-75
2022/09/10 15:08:10;;;;;;;;;;;;;;;;;;4972998;28;1407;-75
2022/09/10 15:10:37;;;;;;;;;;;;;;;;;;4990399;28;1067;-76
2022/09/10 15:13:03;;;;;;;;;;;;;;;;;;4990188;28;1068;-78
2022/09/10 15:15:29;;;;;;;;;;;;;;;;;;4990789;28;802;-78
2022/09/10 15:17:56;;;;;;;;;;;;;;;;;;4990677;28;1915;-78
2022/09/10 15:20:22;;;;;;;;;;;;;;;;;;4990690;28;1055;-77
2022/09/10 15:22:48;;;;;;;;;;;;;;;;;;4990039;28;1067;-77
2022/09/10 15:25:22;;;;;;;;;;;;;;;;;;4973209;28;1347;-78
2022/09/10 15:27:48;;;;;;;;;;;;;;;;;;4976883;28;1525;-79
2022/09/10 15:30:15;;;;;;;;;;;;;;;;;;5040766;28;1334;-78
2022/09/10 15:32:41;;;;;;;;;;;;;;;;;;5031288;28;1633;-78
2022/09/10 15:35:08;;;;;;;;;;;;;;;;;;5021020;28;1535;-76
2022/09/10 15:37:34;;;;;;;;;;;;;;;;;;4994857;22;1914;-73
2022/09/10 15:40:01;;;;;;;;;;;;;;;;;;4976055;28;2111;-74
2022/09/10 15:42:28;;;;;;;;;;;;;;;;;;4977130;28;1437;-75
2022/09/10 15:44:54;;;;;;;;;;;;;;;;;;4986358;28;1383;-74
2022/09/10 15:47:20;;;;;;;;;;;;;;;;;;4982915;28;1436;-75
2022/09/10 15:49:47;;;;;;;;;;;;;;;;;;4987814;28;1398;-75
2022/09/10 15:52:13;;;;;;;;;;;;;;;;;;4987118;28;1072;-75
2022/09/10 15:54:41;;;;;;;;;;;;;;;;;;4988095;28;715;-75
2022/09/10 15:57:08;;;;;;;;;;;;;;;;;;4987672;28;1123;-75
2022/09/10 15:59:35;;;;;;;;;;;;;;;;;;4985075;28;2382;-76
2022/09/10 16:02:01;;;;;;;;;;;;;;;;;;4984801;28;1119;-75
2022/09/10 16:04:28;;;;;;;;;;;;;;;;;;4961573;28;1434;-75
2022/09/10 16:06:54;;;;;;;;;;;;;;;;;;4971089;28;1211;-75
2022/09/10 16:09:20;;;;;;;;;;;;;;;;;;4988301;28;1348;-75
2022/09/10 16:11:47;;;;;;;;;;;;;;;;;;4970890;28;1267;-74
2022/09/10 16:14:14;;;;;;;;;;;;;;;;;;4986555;28;1363;-75
2022/09/10 16:16:42;;;;;;;;;;;;;;;;;;4988485;28;1119;-74
2022/09/10 16:19:08;;;;;;;;;;;;;;;;;;4988148;28;1922;-75
2022/09/10 16:21:35;;;;;;;;;;;;;;;;;;4986025;28;1459;-75
2022/09/10 16:24:02;;;;;;;;;;;;;;;;;;4978153;28;1219;-75
2022/09/10 16:26:29;;;;;;;;;;;;;;;;;;4972162;28;1409;-75
2022/09/10 16:28:56;;;;;;;;;;;;;;;;;;4978009;28;1508;-74
2022/09/10 16:31:23;;;;;;;;;;;;;;;;;;4983935;28;1122;-74
2022/09/10 16:33:52;;;;;;;;;;;;;;;;;;4985778;28;1409;-75
2022/09/10 16:36:19;;;;;;;;;;;;;;;;;;4972889;28;1385;-75
2022/09/10 16:38:45;;;;;;;;;;;;;;;;;;4986694;28;1915;-74
2022/09/10 16:41:12;;;;;;;;;;;;;;;;;;4987004;28;1055;-74
2022/09/10 16:43:39;;;;;;;;;;;;;;;;;;4983031;28;1634;-75
2022/09/10 16:46:05;;;;;;;;;;;;;;;;;;4969429;28;1119;-75
2022/09/10 16:48:32;;;;;;;;;;;;;;;;;;4967453;28;1331;-75
2022/09/10 16:51:02;;;;;;;;;;;;;;;;;;4967308;28;929;-76
2022/09/10 16:53:28;;;;;;;;;;;;;;;;;;4982458;28;1425;-74
2022/09/10 16:55:59;;;;;;;;;;;;;;;;;;4986870;28;1060;-73
2022/09/10 16:58:25;;;;;;;;;;;;;;;;;;4985915;28;1914;-73
2022/09/10 17:00:52;;;;;;;;;;;;;;;;;;4985111;28;1228;-73
2022/09/10 17:03:18;;;;;;;;;;;;;;;;;;4987358;28;1185;-75
2022/09/10 17:05:45;;;;;;;;;;;;;;;;;;4989398;28;1432;-74
2022/09/10 17:08:13;;;;;;;;;;;;;;;;;;4982873;28;1518;-73
2022/09/10 17:10:39;;;;;;;;;;;;;;;;;;4981165;28;1415;-73
2022/09/10 17:13:05;;;;;;;;;;;;;;;;;;4989588;28;1173;-73
2022/09/10 17:15:31;;;;;;;;;;;;;;;;;;4985216;28;1399;-74